createdAt,value
2023-01-04T00:01:23.202Z,78.90
2023-01-04T00:03:51.509Z,78.80
2023-01-04T00:06:19.838Z,78.70
2023-01-04T00:08:47.876Z,78.80
2023-01-04T00:11:18.725Z,78.50
2023-01-04T00:13:48.645Z,78.70
2023-01-04T00:16:18.050Z,78.70
2023-01-04T00:18:46.527Z,78.40
2023-01-04T00:21:15.521Z,78.60
2023-01-04T00:23:44.482Z,78.70
2023-01-04T00:26:13.335Z,78.60
2023-01-04T00:28:41.452Z,78.30
2023-01-04T00:31:11.832Z,78.40
2023-01-04T00:33:44.753Z,78.50
2023-01-04T00:36:13.627Z,78.60
2023-01-04T00:38:41.809Z,78.40
2023-01-04T00:41:23.205Z,78.60
2023-01-04T00:43:59.937Z,78.70
2023-01-04T00:46:29.432Z,78.60
2023-01-04T00:49:00.485Z,78.50
2023-01-04T00:51:29.058Z,78.70
2023-01-04T00:53:57.122Z,78.50
2023-01-04T00:56:25.161Z,78.70
2023-01-04T00:58:55.948Z,78.60
2023-01-04T01:01:24.137Z,78.70
2023-01-04T01:03:55.609Z,78.50
2023-01-04T01:06:24.880Z,78.50
2023-01-04T01:08:52.959Z,78.60
2023-01-04T01:11:21.284Z,78.60
2023-01-04T01:13:50.334Z,78.50
2023-01-04T01:16:37.984Z,78.40
2023-01-04T01:19:08.866Z,78.30
2023-01-04T01:21:38.020Z,78.50
2023-01-04T01:24:07.097Z,78.60
2023-01-04T01:26:35.269Z,78.60
2023-01-04T01:29:03.318Z,78.60
2023-01-04T01:31:31.384Z,78.60
2023-01-04T01:33:59.523Z,78.50
2023-01-04T01:36:28.943Z,78.60
2023-01-04T01:38:57.023Z,78.50
2023-01-04T01:41:26.182Z,78.40
2023-01-04T01:43:56.243Z,78.60
2023-01-04T01:46:26.517Z,78.70
2023-01-04T01:48:57.366Z,78.40
2023-01-04T01:51:25.396Z,78.60
2023-01-04T01:53:58.634Z,78.70
2023-01-04T01:56:27.263Z,78.80
2023-01-04T01:58:55.620Z,78.70
2023-01-04T02:01:23.750Z,78.70
2023-01-04T02:03:56.884Z,78.80
2023-01-04T02:06:28.531Z,78.70
2023-01-04T02:08:57.951Z,78.80
2023-01-04T02:11:26.000Z,78.90
2023-01-04T02:14:11.696Z,78.90
2023-01-04T02:16:49.943Z,78.90
2023-01-04T02:19:29.114Z,78.90
2023-01-04T02:22:07.941Z,78.90
2023-01-04T02:24:47.659Z,78.90
2023-01-04T02:27:28.058Z,78.90
2023-01-04T02:30:10.481Z,79.00
2023-01-04T02:32:47.978Z,79.00
2023-01-04T02:35:18.698Z,79.10
2023-01-04T02:37:50.633Z,79.10
2023-01-04T02:40:20.755Z,79.10
2023-01-04T02:43:15.502Z,79.10
2023-01-04T02:45:46.094Z,79.00
2023-01-04T02:48:33.242Z,79.10
2023-01-04T02:51:01.570Z,79.20
2023-01-04T02:53:30.896Z,79.10
2023-01-04T02:56:05.740Z,79.20
2023-01-04T02:58:49.875Z,79.30
2023-01-04T03:01:38.534Z,79.30
2023-01-04T03:04:30.784Z,79.20
2023-01-04T03:07:01.036Z,79.30
2023-01-04T03:09:30.436Z,79.40
2023-01-04T03:12:18.859Z,79.40
2023-01-04T03:14:47.956Z,79.40
2023-01-04T03:17:16.244Z,79.40
2023-01-04T03:19:55.952Z,79.60
2023-01-04T03:22:44.797Z,79.60
2023-01-04T03:25:30.140Z,79.60
2023-01-04T03:28:15.429Z,79.50
2023-01-04T03:31:05.176Z,79.80
2023-01-04T03:33:50.974Z,79.80
2023-01-04T03:36:26.700Z,79.80
2023-01-04T03:39:15.363Z,79.80
2023-01-04T03:42:03.231Z,79.80
2023-01-04T03:44:50.915Z,80.00
2023-01-04T03:47:37.434Z,79.80
2023-01-04T03:50:07.744Z,80.00
2023-01-04T03:52:37.261Z,80.00
2023-01-04T03:55:06.029Z,80.00
2023-01-04T03:57:34.086Z,80.10
2023-01-04T04:00:09.424Z,80.10
2023-01-04T04:02:37.818Z,80.10
2023-01-04T04:05:27.312Z,80.10
2023-01-04T04:08:14.358Z,80.10
2023-01-04T04:10:42.416Z,80.30
2023-01-04T04:13:10.487Z,80.30
2023-01-04T04:15:39.906Z,80.40
2023-01-04T04:18:08.006Z,80.40
2023-01-04T04:20:36.133Z,80.40
2023-01-04T04:23:05.559Z,80.40
2023-01-04T04:25:33.594Z,80.50
2023-01-04T04:28:01.606Z,80.50
2023-01-04T04:30:32.945Z,80.40
2023-01-04T04:33:00.966Z,80.50
2023-01-04T04:35:29.045Z,80.50
2023-01-04T04:37:57.088Z,80.60
2023-01-04T04:40:43.679Z,80.60
2023-01-04T04:43:14.961Z,80.80
2023-01-04T04:45:42.983Z,80.70
2023-01-04T04:48:11.067Z,80.70
2023-01-04T04:50:39.128Z,80.80
2023-01-04T04:53:07.184Z,80.70
2023-01-04T04:55:36.655Z,80.80
2023-01-04T04:58:04.677Z,80.80
2023-01-04T05:00:32.725Z,80.90
2023-01-04T05:03:00.876Z,80.90
2023-01-04T05:05:29.050Z,80.90
2023-01-04T05:07:57.073Z,81.00
2023-01-04T05:10:26.988Z,81.00
2023-01-04T05:13:01.052Z,81.10
2023-01-04T05:15:29.419Z,81.20
2023-01-04T05:17:57.453Z,81.20
2023-01-04T05:20:25.505Z,81.20
2023-01-04T05:22:53.535Z,81.20
2023-01-04T05:25:21.577Z,81.30
2023-01-04T05:27:49.662Z,81.30
2023-01-04T05:30:37.238Z,81.30
2023-01-04T05:33:05.610Z,81.30
2023-01-04T05:35:33.668Z,81.40
2023-01-04T05:38:01.689Z,81.50
2023-01-04T05:40:33.011Z,81.40
2023-01-04T05:43:01.052Z,81.40
2023-01-04T05:45:30.523Z,81.40
2023-01-04T05:47:58.588Z,81.70
2023-01-04T05:50:26.995Z,81.60
2023-01-04T05:52:55.020Z,81.60
2023-01-04T05:55:23.111Z,81.70
2023-01-04T05:57:56.980Z,81.60
2023-01-04T06:00:25.089Z,81.60
2023-01-04T06:02:55.549Z,81.80
2023-01-04T06:05:23.909Z,81.80
2023-01-04T06:07:51.978Z,81.80
2023-01-04T06:10:20.224Z,81.90
2023-01-04T06:12:48.349Z,81.90
2023-01-04T06:15:16.507Z,81.90
2023-01-04T06:17:44.548Z,82.00
2023-01-04T06:20:14.107Z,81.90
2023-01-04T06:22:43.081Z,82.00
2023-01-04T06:25:11.422Z,82.00
2023-01-04T06:27:39.465Z,82.00
2023-01-04T06:30:08.606Z,82.10
2023-01-04T06:32:36.823Z,82.20
2023-01-04T06:35:05.430Z,82.10
2023-01-04T06:37:35.688Z,82.20
2023-01-04T06:40:04.280Z,82.20
2023-01-04T06:42:47.202Z,82.40
2023-01-04T06:45:15.433Z,82.40
2023-01-04T06:47:43.478Z,82.50
2023-01-04T06:50:11.876Z,82.30
2023-01-04T06:52:41.289Z,82.40
2023-01-04T06:55:15.067Z,82.60
2023-01-04T06:57:43.098Z,82.60
2023-01-04T07:00:12.302Z,82.60
2023-01-04T07:03:12.696Z,82.50
2023-01-04T07:05:28.353Z,82.60
2023-01-04T07:08:03.898Z,82.50
2023-01-04T07:10:35.630Z,82.60
2023-01-04T07:13:03.692Z,82.60
2023-01-04T07:15:38.327Z,82.90
2023-01-04T07:18:08.573Z,82.80
2023-01-04T07:20:36.795Z,82.90
2023-01-04T07:23:06.271Z,83.20
2023-01-04T07:25:34.386Z,83.00
2023-01-04T07:28:03.087Z,83.00
2023-01-04T07:30:31.132Z,83.00
2023-01-04T07:33:03.078Z,83.20
2023-01-04T07:35:31.079Z,83.10
2023-01-04T07:38:05.071Z,83.10
2023-01-04T07:40:33.168Z,83.30
2023-01-04T07:43:02.143Z,83.20
2023-01-04T07:45:30.386Z,83.30
2023-01-04T07:47:59.191Z,83.30
2023-01-04T07:50:27.241Z,83.20
2023-01-04T07:52:55.277Z,83.40
2023-01-04T07:55:24.681Z,83.40
2023-01-04T07:57:54.403Z,83.50
2023-01-04T08:00:22.536Z,83.50
2023-01-04T08:02:50.741Z,83.50
2023-01-04T08:05:21.190Z,83.60
2023-01-04T08:07:49.288Z,83.60
2023-01-04T08:10:17.431Z,83.60
2023-01-04T08:12:46.871Z,83.70
2023-01-04T08:15:15.361Z,83.60
2023-01-04T08:17:43.388Z,83.60
2023-01-04T08:20:12.141Z,83.80
2023-01-04T08:22:45.111Z,83.80
2023-01-04T08:25:13.195Z,83.70
2023-01-04T08:27:41.808Z,83.70
2023-01-04T08:30:12.283Z,83.80
2023-01-04T08:32:40.880Z,84.00
2023-01-04T08:35:09.389Z,84.10
2023-01-04T08:37:37.371Z,84.10
2023-01-04T08:40:06.046Z,84.30
2023-01-04T08:42:34.097Z,84.50
2023-01-04T08:45:02.365Z,84.30
2023-01-04T08:47:32.098Z,84.30
2023-01-04T08:50:04.849Z,84.30
2023-01-04T08:52:37.811Z,84.60
2023-01-04T08:55:12.326Z,84.50
2023-01-04T08:57:41.482Z,84.60
2023-01-04T09:00:11.285Z,84.50
2023-01-04T09:02:40.825Z,84.70
2023-01-04T09:05:09.676Z,84.90
2023-01-04T09:07:37.804Z,85.00
2023-01-04T09:10:06.313Z,85.10
2023-01-04T09:12:34.351Z,85.10
2023-01-04T09:15:02.391Z,85.10
2023-01-04T09:17:33.224Z,85.00
2023-01-04T09:20:02.584Z,85.00
2023-01-04T09:22:32.502Z,85.10
2023-01-04T09:25:00.589Z,85.30
2023-01-04T09:27:28.631Z,85.20
2023-01-04T09:29:56.645Z,85.20
2023-01-04T09:32:27.237Z,85.20
2023-01-04T09:34:56.396Z,85.40
2023-01-04T09:37:25.822Z,85.30
2023-01-04T09:39:53.874Z,85.50
2023-01-04T09:42:23.988Z,85.80
2023-01-04T09:47:42.774Z,85.60
2023-01-04T09:50:14.087Z,85.60
2023-01-04T09:52:50.736Z,85.70
2023-01-04T09:55:36.912Z,85.90
2023-01-04T09:58:14.614Z,85.90
2023-01-04T10:00:44.976Z,86.20
2023-01-04T10:03:15.461Z,86.20
2023-01-04T10:05:43.671Z,86.10
2023-01-04T10:08:16.336Z,86.00
2023-01-04T10:10:49.554Z,86.00
2023-01-04T10:13:24.645Z,86.40
2023-01-04T10:15:54.515Z,86.30
2023-01-04T10:21:34.408Z,86.30
2023-01-04T10:24:14.073Z,86.70
2023-01-04T10:26:45.637Z,86.80
2023-01-04T10:29:37.173Z,86.30
2023-01-04T10:32:07.119Z,86.40
2023-01-04T10:34:38.998Z,86.80
2023-01-04T10:37:14.041Z,86.40
2023-01-04T10:39:43.615Z,86.40
2023-01-04T10:42:16.792Z,86.50
2023-01-04T10:44:48.580Z,86.60
2023-01-04T10:47:18.229Z,86.80
2023-01-04T10:49:49.238Z,86.60
2023-01-04T10:52:18.174Z,86.50
2023-01-04T10:54:49.075Z,86.60
2023-01-04T10:57:19.936Z,86.80
2023-01-04T10:59:48.777Z,86.70
2023-01-04T11:02:24.022Z,86.80
2023-01-04T11:04:54.176Z,87.00
2023-01-04T11:07:23.239Z,86.90
2023-01-04T11:09:54.214Z,86.90
2023-01-04T11:12:24.913Z,87.10
2023-01-04T11:14:53.027Z,86.70
2023-01-04T11:17:21.201Z,87.00
2023-01-04T11:19:49.279Z,87.40
2023-01-04T11:22:20.790Z,87.00
2023-01-04T11:25:32.653Z,87.10
2023-01-04T11:27:43.711Z,87.00
2023-01-04T11:30:16.836Z,87.20
2023-01-04T11:32:48.649Z,87.20
2023-01-04T11:35:16.814Z,87.20
2023-01-04T11:37:44.837Z,87.20
2023-01-04T11:40:19.155Z,87.50
2023-01-04T11:42:49.800Z,87.20
2023-01-04T11:45:19.722Z,87.30
2023-01-04T11:47:52.488Z,87.40
2023-01-04T11:50:42.710Z,87.40
2023-01-04T11:53:29.724Z,87.20
2023-01-04T11:56:10.557Z,87.30
2023-01-04T11:58:39.959Z,87.60
2023-01-04T12:01:11.802Z,87.60
2023-01-04T12:03:40.428Z,87.30
2023-01-04T12:06:12.192Z,87.50
2023-01-04T12:08:41.827Z,87.60
2023-01-04T12:11:15.262Z,87.60
2023-01-04T12:13:45.709Z,87.70
2023-01-04T12:16:18.314Z,87.70
2023-01-04T12:18:46.619Z,87.70
2023-01-04T12:21:17.725Z,87.90
2023-01-04T12:23:45.986Z,88.10
2023-01-04T12:26:15.325Z,87.90
2023-01-04T12:28:45.275Z,87.80
2023-01-04T12:31:29.991Z,87.90
2023-01-04T12:33:58.635Z,87.90
2023-01-04T12:36:57.516Z,87.90
2023-01-04T12:39:42.704Z,88.00
2023-01-04T12:42:19.672Z,88.10
2023-01-04T12:45:17.821Z,88.10
2023-01-04T12:48:05.412Z,88.10
2023-01-04T12:50:37.025Z,88.10
2023-01-04T12:53:28.968Z,88.20
2023-01-04T12:55:58.405Z,88.10
2023-01-04T13:02:25.711Z,88.20
2023-01-04T13:05:25.631Z,88.20
2023-01-04T13:07:46.055Z,88.40
2023-01-04T13:10:21.918Z,88.20
2023-01-04T13:13:22.238Z,88.30
2023-01-04T13:15:56.240Z,88.40
2023-01-04T13:18:39.514Z,88.40
2023-01-04T13:21:13.806Z,88.30
2023-01-04T13:23:41.870Z,88.30
2023-01-04T13:26:29.612Z,88.40
2023-01-04T13:29:12.824Z,88.50
2023-01-04T13:31:52.236Z,88.50
2023-01-04T13:34:21.431Z,88.50
2023-01-04T13:37:06.706Z,88.50
2023-01-04T13:39:34.928Z,88.70
2023-01-04T13:42:02.989Z,88.60
2023-01-04T13:47:47.407Z,88.60
2023-01-04T13:50:25.863Z,88.70
2023-01-04T13:53:06.126Z,88.70
2023-01-04T13:55:35.716Z,88.80
2023-01-04T13:58:04.518Z,88.80
2023-01-04T14:00:37.137Z,88.80
2023-01-04T14:03:17.671Z,88.80
2023-01-04T14:05:46.914Z,88.80
2023-01-04T14:08:19.670Z,88.90
2023-01-04T14:10:47.693Z,88.80
2023-01-04T14:13:16.845Z,88.80
2023-01-04T14:15:44.945Z,88.90
2023-01-04T14:18:26.803Z,88.70
2023-01-04T14:20:54.836Z,88.80
2023-01-04T14:23:33.764Z,88.90
2023-01-04T14:26:01.781Z,88.90
2023-01-04T14:28:41.818Z,88.90
2023-01-04T14:31:33.383Z,89.00
2023-01-04T14:34:06.018Z,89.00
2023-01-04T14:36:36.509Z,89.00
2023-01-04T14:39:15.846Z,89.00
2023-01-04T14:41:44.660Z,89.10
2023-01-04T14:44:14.822Z,89.20
2023-01-04T14:46:43.769Z,89.20
2023-01-04T14:49:11.888Z,89.20
2023-01-04T14:51:46.274Z,89.20
2023-01-04T14:54:23.889Z,89.40
2023-01-04T14:56:52.473Z,89.40
2023-01-04T14:59:20.543Z,89.30
2023-01-04T15:01:48.663Z,89.50
2023-01-04T15:04:16.794Z,89.40
2023-01-04T15:06:52.096Z,89.40
2023-01-04T15:09:21.657Z,89.50
2023-01-04T15:11:51.489Z,89.60
2023-01-04T15:14:19.509Z,89.50
2023-01-04T15:16:47.617Z,89.50
2023-01-04T15:19:15.716Z,89.60
2023-01-04T15:21:43.724Z,89.60
2023-01-04T15:24:11.833Z,89.70
2023-01-04T15:26:41.310Z,89.70
2023-01-04T15:29:09.813Z,90.00
2023-01-04T15:31:40.483Z,89.80
2023-01-04T15:34:09.142Z,89.80
2023-01-04T15:36:40.520Z,90.00
2023-01-04T15:39:09.742Z,89.90
2023-01-04T15:41:55.573Z,89.80
2023-01-04T15:44:24.994Z,89.80
2023-01-04T15:46:54.149Z,89.80
2023-01-04T15:49:22.240Z,90.00
2023-01-04T15:51:50.332Z,89.80
2023-01-04T15:54:18.526Z,89.90
2023-01-04T15:56:46.631Z,90.00
2023-01-04T15:59:14.702Z,89.90
2023-01-04T16:01:44.776Z,89.90
2023-01-04T16:04:12.932Z,90.00
2023-01-04T16:06:41.026Z,90.10
2023-01-04T16:09:09.350Z,90.50
2023-01-04T16:11:37.364Z,90.10
2023-01-04T16:14:05.345Z,90.10
2023-01-04T16:16:33.532Z,90.30
2023-01-04T16:19:02.973Z,90.30
2023-01-04T16:21:31.602Z,90.30
2023-01-04T16:24:09.273Z,90.30
2023-01-04T16:26:41.255Z,90.30
2023-01-04T16:29:11.001Z,90.30
2023-01-04T16:31:40.301Z,90.30
2023-01-04T16:34:12.131Z,90.50
2023-01-04T16:36:40.219Z,90.50
2023-01-04T16:39:08.386Z,90.40
2023-01-04T16:41:36.389Z,90.30
2023-01-04T16:44:06.326Z,90.60
2023-01-04T16:46:34.886Z,90.50
2023-01-04T16:49:03.939Z,90.50
2023-01-04T16:51:34.778Z,90.30
2023-01-04T16:54:03.423Z,90.30
2023-01-04T16:56:31.473Z,90.60
2023-01-04T16:58:59.504Z,90.40
2023-01-04T17:01:30.476Z,90.40
2023-01-04T17:03:59.992Z,90.50
2023-01-04T17:06:28.687Z,90.40
2023-01-04T17:08:58.577Z,90.50
2023-01-04T17:12:11.568Z,90.40
2023-01-04T17:14:15.312Z,90.40
2023-01-04T17:16:44.009Z,90.40
2023-01-04T17:19:15.533Z,90.40
2023-01-04T17:21:43.545Z,90.40
2023-01-04T17:24:13.150Z,90.50
2023-01-04T17:26:41.453Z,90.40
2023-01-04T17:29:09.680Z,90.50
2023-01-04T17:31:40.067Z,90.50
2023-01-04T17:34:08.298Z,90.60
2023-01-04T17:36:36.307Z,90.60
2023-01-04T17:39:04.478Z,90.60
2023-01-04T17:41:33.858Z,90.60
2023-01-04T17:44:02.907Z,90.60
2023-01-04T17:46:31.891Z,90.60
2023-01-04T17:49:21.735Z,90.60
2023-01-04T17:51:48.301Z,90.60
2023-01-04T17:54:16.331Z,90.70
2023-01-04T17:56:45.727Z,90.70
2023-01-04T17:59:13.803Z,90.80
2023-01-04T18:01:41.861Z,90.80
2023-01-04T18:04:10.126Z,91.20
2023-01-04T18:06:38.336Z,91.00
2023-01-04T18:09:07.189Z,91.20
2023-01-04T18:11:35.353Z,91.20
2023-01-04T18:14:09.595Z,91.20
2023-01-04T18:16:57.027Z,91.20
2023-01-04T18:19:28.344Z,91.30
2023-01-04T18:21:56.447Z,91.00
2023-01-04T18:24:36.256Z,91.20
2023-01-04T18:27:23.179Z,91.20
2023-01-04T18:29:53.768Z,91.20
2023-01-04T18:32:21.843Z,91.20
2023-01-04T18:34:49.940Z,91.20
2023-01-04T18:37:18.739Z,91.20
2023-01-04T18:39:47.256Z,91.20
2023-01-04T18:42:15.335Z,91.20
2023-01-04T18:44:48.306Z,91.20
2023-01-04T18:47:18.484Z,91.20
2023-01-04T18:49:46.538Z,91.20
2023-01-04T18:52:15.748Z,91.20
2023-01-04T18:54:45.046Z,91.20
2023-01-04T18:57:13.286Z,91.00
2023-01-04T18:59:41.905Z,91.00
2023-01-04T19:02:12.822Z,91.20
2023-01-04T19:04:42.435Z,91.20
2023-01-04T19:07:10.442Z,91.20
2023-01-04T19:09:39.478Z,91.20
2023-01-04T19:12:07.621Z,91.20
2023-01-04T19:14:35.634Z,91.00
2023-01-04T19:17:03.722Z,91.30
2023-01-04T19:19:31.745Z,91.50
2023-01-04T19:22:01.145Z,91.20
2023-01-04T19:24:29.160Z,91.00
2023-01-04T19:27:02.702Z,90.90
2023-01-04T19:29:30.982Z,91.20
2023-01-04T19:31:59.022Z,91.20
2023-01-04T19:34:27.058Z,91.30
2023-01-04T19:36:55.077Z,91.20
2023-01-04T19:39:24.452Z,91.20
2023-01-04T19:41:52.754Z,91.00
2023-01-04T19:44:20.768Z,91.40
2023-01-04T19:46:48.790Z,91.20
2023-01-04T19:49:17.258Z,91.00
2023-01-04T19:51:47.188Z,91.00
2023-01-04T19:54:21.523Z,91.00
2023-01-04T19:56:52.689Z,90.90
2023-01-04T19:59:20.703Z,91.00
2023-01-04T20:01:48.846Z,91.20
2023-01-04T20:04:16.958Z,91.20
2023-01-04T20:06:45.681Z,90.90
2023-01-04T20:09:13.689Z,90.90
2023-01-04T20:11:41.687Z,91.00
2023-01-04T20:14:17.243Z,90.90
2023-01-04T20:16:45.291Z,90.80
2023-01-04T20:19:13.375Z,90.90
2023-01-04T20:21:45.720Z,90.90
2023-01-04T20:24:13.714Z,90.70
2023-01-04T20:26:41.758Z,90.70
2023-01-04T20:29:09.807Z,90.70
2023-01-04T20:31:45.247Z,90.70
2023-01-04T20:34:13.742Z,90.70
2023-01-04T20:36:41.797Z,90.60
2023-01-04T20:39:09.859Z,91.00
2023-01-04T20:41:37.900Z,90.90
2023-01-04T20:44:05.207Z,90.70
2023-01-04T20:46:33.476Z,90.60
2023-01-04T20:49:03.065Z,90.60
2023-01-04T20:51:31.323Z,90.70
2023-01-04T20:54:00.171Z,90.60
2023-01-04T20:56:29.279Z,90.80
2023-01-04T20:58:57.405Z,90.70
2023-01-04T21:01:25.699Z,90.90
2023-01-04T21:03:53.829Z,90.70
2023-01-04T21:06:24.843Z,90.60
2023-01-04T21:08:54.921Z,90.80
2023-01-04T21:11:23.413Z,90.70
2023-01-04T21:13:51.545Z,90.70
2023-01-04T21:16:19.608Z,90.60
2023-01-04T21:18:47.659Z,90.50
2023-01-04T21:21:16.647Z,90.50
2023-01-04T21:23:46.282Z,90.60
2023-01-04T21:26:15.484Z,90.60
2023-01-04T21:28:43.473Z,90.70
2023-01-04T21:31:12.161Z,90.70
2023-01-04T21:33:40.262Z,90.60
2023-01-04T21:36:13.640Z,90.40
2023-01-04T21:38:41.691Z,90.40
2023-01-04T21:41:11.636Z,90.50
2023-01-04T21:43:39.719Z,90.40
2023-01-04T21:46:08.620Z,90.50
2023-01-04T21:48:36.704Z,90.50
2023-01-04T21:51:05.385Z,90.40
2023-01-04T21:53:33.737Z,90.20
2023-01-04T21:56:02.011Z,90.40
2023-01-04T21:58:35.316Z,90.40
2023-01-04T22:01:08.785Z,90.20
2023-01-04T22:03:36.928Z,90.20
2023-01-04T22:06:05.273Z,90.20
2023-01-04T22:08:33.354Z,90.10
2023-01-04T22:11:02.395Z,90.10
2023-01-04T22:13:30.416Z,90.20
2023-01-04T22:15:59.853Z,90.20
2023-01-04T22:18:27.917Z,90.20
2023-01-04T22:21:02.801Z,90.10
2023-01-04T22:23:31.144Z,90.10
2023-01-04T22:25:59.159Z,90.10
2023-01-04T22:28:30.570Z,90.00
2023-01-04T22:31:06.823Z,90.00
2023-01-04T22:33:35.392Z,90.00
2023-01-04T22:36:05.697Z,89.90
2023-01-04T22:38:35.197Z,89.90
2023-01-04T22:41:06.708Z,89.90
2023-01-04T22:43:34.759Z,90.00
2023-01-04T22:46:03.071Z,89.70
2023-01-04T22:48:32.514Z,89.80
2023-01-04T22:51:00.512Z,89.80
2023-01-04T22:53:28.553Z,89.70
2023-01-04T22:58:51.671Z,89.70
2023-01-04T23:01:21.863Z,89.60
2023-01-04T23:03:52.391Z,89.60
2023-01-04T23:06:20.742Z,89.60
2023-01-04T23:08:48.808Z,89.60
2023-01-04T23:11:18.625Z,89.40
2023-01-04T23:13:46.739Z,89.50
2023-01-04T23:16:15.892Z,89.50
2023-01-04T23:18:43.925Z,89.50
2023-01-04T23:21:13.301Z,89.50
2023-01-04T23:23:41.578Z,89.50
2023-01-04T23:26:10.578Z,89.50
2023-01-04T23:28:38.622Z,89.40
2023-01-04T23:31:08.276Z,89.40
2023-01-04T23:33:37.109Z,89.40
2023-01-04T23:36:11.025Z,89.40
2023-01-04T23:38:40.543Z,89.40
2023-01-04T23:41:08.639Z,89.40
2023-01-04T23:43:37.185Z,89.30
2023-01-04T23:48:36.793Z,89.30
2023-01-04T23:51:04.962Z,89.30
2023-01-04T23:53:33.033Z,89.30
2023-01-04T23:56:03.553Z,89.20
2023-01-04T23:58:32.021Z,89.10
